Time;durP1;ratioP1;P1;durP2;ratioP2;P2;SDS_P1;SDS_P2;PMS_P1;PMS_P2;Temp;Humidity;BMP_temperature;BMP_pressure;BME280_temperature;BME280_humidity;BME280_pressure;Samples;Min_cycle;Max_cycle;Signal;HPM_P1;HPM_P2
2024/02/28 00:12:24;;;;;;;31.50;20.93;;;;;;;;;;5556931;23;20517;-88
2024/02/28 00:23:42;;;;;;;;;;;;;;;;;;;;;
2024/02/28 00:38:50;;;;;;;29.70;18.13;;;;;;;;;;4934862;29;20477;-87
2024/02/28 00:41:49;;;;;;;32.97;19.60;;;;;;;;;;4865016;29;20449;-87
2024/02/28 00:49:00;;;;;;;31.07;18.50;;;;;;;;;;4853286;29;20474;-88
2024/02/28 00:51:56;;;;;;;32.40;18.57;;;;;;;;;;4797987;29;20499;-88
2024/02/28 00:58:51;;;;;;;35.60;20.30;;;;;;;;;;4808015;29;20531;-88
2024/02/28 01:05:15;;;;;;;36.43;18.93;;;;;;;;;;4833479;29;20488;-89
2024/02/28 01:18:34;;;;;;;35.40;20.10;;;;;;;;;;4752967;29;20452;-89
2024/02/28 01:25:15;;;;;;;36.50;21.40;;;;;;;;;;4791275;29;20487;-88
2024/02/28 01:28:07;;;;;;;33.80;19.80;;;;;;;;;;4779672;29;22586;-89
2024/02/28 01:30:36;;;;;;;34.70;21.20;;;;;;;;;;4786156;29;20500;-87
2024/02/28 01:33:24;;;;;;;36.70;22.00;;;;;;;;;;4794574;29;20981;-88
2024/02/28 01:35:55;;;;;;;40.63;22.83;;;;;;;;;;4847983;29;21180;-88
2024/02/28 01:38:26;;;;;;;49.63;24.47;;;;;;;;;;4889973;29;21501;-86
2024/02/28 01:40:57;;;;;;;40.73;23.57;;;;;;;;;;4895517;29;21655;-86
2024/02/28 01:43:28;;;;;;;44.90;25.10;;;;;;;;;;4893892;29;20494;-87
2024/02/28 01:46:06;;;;;;;50.67;27.43;;;;;;;;;;4910275;29;20451;-87
2024/02/28 01:48:33;;;;;;;44.57;26.03;;;;;;;;;;4888975;29;20550;-87
2024/02/28 01:51:04;;;;;;;48.93;27.80;;;;;;;;;;4924297;29;20912;-88
2024/02/28 01:53:34;;;;;;;43.87;26.17;;;;;;;;;;4897243;29;20477;-88
2024/02/28 01:56:06;;;;;;;53.47;29.20;;;;;;;;;;4895654;29;20462;-85
2024/02/28 01:58:40;;;;;;;46.17;27.73;;;;;;;;;;4923595;29;20529;-86
2024/02/28 02:01:14;;;;;;;48.57;28.27;;;;;;;;;;4910900;29;20477;-89
2024/02/28 02:03:53;;;;;;;51.33;28.37;;;;;;;;;;4921286;29;20491;-87
2024/02/28 02:06:25;;;;;;;47.40;27.27;;;;;;;;;;4922406;29;20467;-87
2024/02/28 02:09:03;;;;;;;49.73;27.90;;;;;;;;;;4894273;29;20474;-87
2024/02/28 02:11:33;;;;;;;47.23;26.87;;;;;;;;;;4897309;29;20562;-86
2024/02/28 02:14:15;;;;;;;49.17;27.27;;;;;;;;;;4922373;29;20491;-88
2024/02/28 02:17:12;;;;;;;47.03;26.10;;;;;;;;;;4928221;29;20428;-88
2024/02/28 02:19:44;;;;;;;46.67;27.43;;;;;;;;;;4910216;29;20454;-87
2024/02/28 02:22:23;;;;;;;51.90;26.67;;;;;;;;;;4933156;29;20462;-88
2024/02/28 02:25:03;;;;;;;49.30;28.60;;;;;;;;;;4910057;29;20481;-88
2024/02/28 02:27:30;;;;;;;48.90;27.37;;;;;;;;;;4931574;29;20474;-87
2024/02/28 02:29:58;;;;;;;53.53;26.93;;;;;;;;;;4899609;29;20477;-89
2024/02/28 02:32:28;;;;;;;49.70;26.73;;;;;;;;;;4917460;29;21029;-88
2024/02/28 02:34:56;;;;;;;50.37;26.67;;;;;;;;;;4936746;29;20455;-88
2024/02/28 02:37:27;;;;;;;48.73;25.57;;;;;;;;;;4941815;29;21475;-88
2024/02/28 02:39:59;;;;;;;53.67;28.50;;;;;;;;;;4940993;29;20503;-89
2024/02/28 02:47:58;;;;;;;51.67;29.63;;;;;;;;;;4979163;28;20452;-89
2024/02/28 02:50:29;;;;;;;54.77;26.30;;;;;;;;;;4989790;28;20499;-86
2024/02/28 02:53:12;;;;;;;51.97;28.10;;;;;;;;;;4988058;28;20459;-89
2024/02/28 02:55:43;;;;;;;54.67;28.07;;;;;;;;;;4972063;28;20548;-85
2024/02/28 02:58:18;;;;;;;55.03;28.33;;;;;;;;;;4985205;28;21215;-88
2024/02/28 03:00:46;;;;;;;60.43;30.30;;;;;;;;;;4972066;28;20452;-87
2024/02/28 03:03:15;;;;;;;58.13;28.77;;;;;;;;;;4984941;28;20503;-88
2024/02/28 03:05:43;;;;;;;58.70;29.60;;;;;;;;;;4991010;28;20459;-88
2024/02/28 03:08:12;;;;;;;51.50;28.17;;;;;;;;;;4973159;28;20454;-89
2024/02/28 03:10:42;;;;;;;47.10;26.40;;;;;;;;;;4972321;28;20511;-88
2024/02/28 03:13:20;;;;;;;54.17;28.50;;;;;;;;;;4992010;28;20527;-88
2024/02/28 03:15:48;;;;;;;56.77;29.47;;;;;;;;;;4992641;28;20443;-89
2024/02/28 03:18:16;;;;;;;55.13;27.70;;;;;;;;;;4971893;28;20433;-87
2024/02/28 03:20:45;;;;;;;49.40;26.60;;;;;;;;;;4977209;28;20459;-88
2024/02/28 03:25:56;;;;;;;47.23;26.40;;;;;;;;;;4934240;29;20498;-86
2024/02/28 03:28:24;;;;;;;40.93;24.90;;;;;;;;;;4933745;29;20487;-86
2024/02/28 03:31:05;;;;;;;47.23;26.73;;;;;;;;;;4926535;29;20494;-85
2024/02/28 03:33:35;;;;;;;48.57;26.97;;;;;;;;;;4919657;29;20483;-87
2024/02/28 03:36:23;;;;;;;47.13;26.50;;;;;;;;;;4918242;29;20449;-89
2024/02/28 03:39:23;;;;;;;51.17;25.60;;;;;;;;;;4907967;29;20457;-88
2024/02/28 03:42:02;;;;;;;46.93;25.30;;;;;;;;;;4905008;29;20454;-88
2024/02/28 03:44:45;;;;;;;;;;;;;;;;;;;;;
2024/02/28 03:47:19;;;;;;;50.97;26.30;;;;;;;;;;4917033;29;20515;-86
2024/02/28 03:49:57;;;;;;;45.53;25.67;;;;;;;;;;4922371;29;20848;-87
2024/02/28 03:52:49;;;;;;;45.77;24.07;;;;;;;;;;4918567;29;20463;-87
2024/02/28 03:55:21;;;;;;;57.50;27.30;;;;;;;;;;4912883;29;20459;-86
2024/02/28 03:58:28;;;;;;;53.90;26.87;;;;;;;;;;4910076;29;20459;-86
2024/02/28 04:01:18;;;;;;;43.67;24.47;;;;;;;;;;4927404;29;20538;-85
2024/02/28 04:04:13;;;;;;;47.80;25.67;;;;;;;;;;4901629;29;20469;-89
2024/02/28 04:07:02;;;;;;;46.70;26.47;;;;;;;;;;4908105;29;20489;-88
2024/02/28 04:15:38;;;;;;;50.80;26.37;;;;;;;;;;5004110;23;20548;-87
2024/02/28 04:18:26;;;;;;;48.57;26.33;;;;;;;;;;4960171;28;20460;-87
2024/02/28 04:21:18;;;;;;;53.37;28.30;;;;;;;;;;4974035;28;20466;-89
2024/02/28 04:23:52;;;;;;;50.53;26.20;;;;;;;;;;4923342;29;20484;-90
2024/02/28 04:29:46;;;;;;;50.57;26.80;;;;;;;;;;4920431;29;20451;-87
2024/02/28 04:33:02;;;;;;;47.53;26.27;;;;;;;;;;4914000;29;20497;-87
2024/02/28 04:35:41;;;;;;;50.63;27.53;;;;;;;;;;4911702;29;20452;-87
2024/02/28 04:38:46;;;;;;;52.97;28.10;;;;;;;;;;4918721;28;20491;-88
2024/02/28 04:41:39;;;;;;;55.43;27.80;;;;;;;;;;4956084;28;20460;-87
2024/02/28 04:44:19;;;;;;;47.50;25.57;;;;;;;;;;4964228;28;20563;-88
2024/02/28 04:46:51;;;;;;;50.83;27.70;;;;;;;;;;4964103;28;20498;-88
2024/02/28 04:49:24;;;;;;;57.20;27.67;;;;;;;;;;4964762;28;20475;-88
2024/02/28 04:51:58;;;;;;;55.83;29.13;;;;;;;;;;4977282;28;20489;-86
2024/02/28 04:55:02;;;;;;;59.40;27.97;;;;;;;;;;4960002;28;20476;-85
2024/02/28 04:57:50;;;;;;;57.07;28.57;;;;;;;;;;4944159;28;20447;-88
2024/02/28 05:04:16;;;;;;;47.37;25.73;;;;;;;;;;4979348;28;20443;-87
2024/02/28 05:06:51;;;;;;;52.50;26.47;;;;;;;;;;4965604;28;20463;-87
2024/02/28 05:13:15;;;;;;;50.20;26.27;;;;;;;;;;4976391;28;20486;-85
2024/02/28 05:15:52;;;;;;;48.27;25.40;;;;;;;;;;4964006;28;20551;-85
2024/02/28 05:18:49;;;;;;;48.20;25.50;;;;;;;;;;4913934;28;20441;-89
2024/02/28 05:21:36;;;;;;;49.07;23.63;;;;;;;;;;4969537;28;20532;-87
2024/02/28 05:24:45;;;;;;;;;;;;;;;;;;;;;
2024/02/28 05:28:05;;;;;;;47.50;24.90;;;;;;;;;;4994793;28;20482;-88
2024/02/28 05:31:08;;;;;;;54.13;27.90;;;;;;;;;;4917526;28;20480;-88
2024/02/28 05:34:16;;;;;;;;;;;;;;;;;;;;;
2024/02/28 05:36:59;;;;;;;49.33;26.03;;;;;;;;;;4977199;28;20523;-89
2024/02/28 05:39:31;;;;;;;51.13;27.17;;;;;;;;;;4965034;28;20468;-88
2024/02/28 05:45:44;;;;;;;49.93;25.43;;;;;;;;;;4977483;28;20993;-87
2024/02/28 05:48:22;;;;;;;53.13;27.30;;;;;;;;;;4961340;28;20491;-89
2024/02/28 05:51:05;;;;;;;47.90;25.10;;;;;;;;;;4962549;28;20513;-88
2024/02/28 05:53:44;;;;;;;50.10;26.20;;;;;;;;;;4959293;28;20534;-87
2024/02/28 05:56:38;;;;;;;51.03;26.13;;;;;;;;;;4964886;28;20449;-88
2024/02/28 05:59:16;;;;;;;52.27;27.47;;;;;;;;;;4958087;28;20861;-88
2024/02/28 06:08:47;;;;;;;58.33;28.33;;;;;;;;;;4994205;28;20431;-88
2024/02/28 06:11:46;;;;;;;71.93;30.73;;;;;;;;;;4984788;28;20500;-88
2024/02/28 06:14:23;;;;;;;66.67;32.20;;;;;;;;;;4987996;28;20476;-87
2024/02/28 06:20:02;;;;;;;54.63;28.40;;;;;;;;;;4989285;28;20460;-87
2024/02/28 06:22:43;;;;;;;56.20;26.70;;;;;;;;;;4972304;28;20511;-88
2024/02/28 06:25:28;;;;;;;52.53;27.10;;;;;;;;;;4961258;28;20445;-89
2024/02/28 06:28:32;;;;;;;;;;;;;;;;;;;;;
2024/02/28 06:31:20;;;;;;;49.93;25.00;;;;;;;;;;4979553;28;22121;-89
2024/02/28 06:37:10;;;;;;;50.93;25.10;;;;;;;;;;4974964;28;20546;-87
2024/02/28 06:40:05;;;;;;;;;;;;;;;;;;;;;
2024/02/28 06:42:50;;;;;;;56.90;26.60;;;;;;;;;;4983086;28;20555;-87
2024/02/28 06:45:41;;;;;;;58.10;27.93;;;;;;;;;;4968609;28;20463;-87
2024/02/28 06:48:22;;;;;;;58.10;26.70;;;;;;;;;;4966446;28;21140;-86
2024/02/28 06:50:56;;;;;;;66.83;29.00;;;;;;;;;;4963412;28;20458;-87
2024/02/28 06:54:03;;;;;;;52.03;23.00;;;;;;;;;;4971831;28;20483;-88
2024/02/28 06:56:45;;;;;;;58.07;26.63;;;;;;;;;;4963039;28;20492;-88
2024/02/28 06:59:52;;;;;;;55.13;28.10;;;;;;;;;;4971993;28;20456;-89
2024/02/28 07:02:28;;;;;;;57.37;26.97;;;;;;;;;;4988919;28;20497;-86
2024/02/28 07:08:44;;;;;;;63.13;28.90;;;;;;;;;;4986330;28;20833;-87
2024/02/28 07:11:30;;;;;;;54.50;26.10;;;;;;;;;;4942343;28;20481;-87
2024/02/28 07:14:31;;;;;;;60.53;28.23;;;;;;;;;;4922633;28;20480;-87
2024/02/28 07:17:20;;;;;;;62.80;28.07;;;;;;;;;;4962400;28;20471;-87
2024/02/28 07:20:14;;;;;;;71.93;29.70;;;;;;;;;;4969884;28;20461;-88
2024/02/28 07:23:04;;;;;;;60.50;27.67;;;;;;;;;;4926534;28;20460;-87
2024/02/28 07:25:40;;;;;;;63.40;26.37;;;;;;;;;;4968150;28;20550;-88
2024/02/28 07:29:00;;;;;;;65.30;28.10;;;;;;;;;;4957489;28;20467;-86
2024/02/28 07:31:52;;;;;;;60.70;27.57;;;;;;;;;;4980998;28;20835;-86
2024/02/28 07:34:46;;;;;;;;;;;;;;;;;;;;;
2024/02/28 07:37:34;;;;;;;61.67;27.50;;;;;;;;;;4983538;28;20528;-87
2024/02/28 07:40:22;;;;;;;62.97;28.50;;;;;;;;;;4964322;28;20524;-90
2024/02/28 07:46:18;;;;;;;64.80;27.87;;;;;;;;;;4979288;28;20466;-87
2024/02/28 07:48:57;;;;;;;55.40;25.73;;;;;;;;;;4964053;28;20463;-87
2024/02/28 07:51:44;;;;;;;51.83;27.10;;;;;;;;;;4966030;28;20500;-89
2024/02/28 07:54:25;;;;;;;58.40;28.67;;;;;;;;;;4966316;28;20514;-88
2024/02/28 07:57:07;;;;;;;49.43;24.90;;;;;;;;;;4962492;28;20558;-87
2024/02/28 07:59:51;;;;;;;53.60;26.57;;;;;;;;;;4959076;28;20456;-87
2024/02/28 08:02:39;;;;;;;61.87;29.13;;;;;;;;;;4969109;28;20537;-88
2024/02/28 08:05:28;;;;;;;63.27;29.60;;;;;;;;;;4960819;28;20514;-88
2024/02/28 08:08:02;;;;;;;58.60;27.57;;;;;;;;;;4962903;28;20757;-85
2024/02/28 08:10:48;;;;;;;62.53;29.10;;;;;;;;;;4961987;28;20492;-87
2024/02/28 08:13:33;;;;;;;63.93;29.97;;;;;;;;;;4960883;28;20488;-88
2024/02/28 08:16:23;;;;;;;56.23;28.10;;;;;;;;;;4961078;28;20464;-87
2024/02/28 08:19:10;;;;;;;55.63;27.60;;;;;;;;;;4959579;28;20509;-86
2024/02/28 08:22:07;;;;;;;58.27;26.77;;;;;;;;;;4903206;29;20538;-88
2024/02/28 08:24:51;;;;;;;59.43;29.50;;;;;;;;;;4892688;29;20554;-87
2024/02/28 08:27:49;;;;;;;53.50;27.10;;;;;;;;;;4900794;29;20813;-88
2024/02/28 08:30:25;;;;;;;60.40;28.93;;;;;;;;;;4903049;29;20459;-88
2024/02/28 08:33:34;;;;;;;57.70;29.27;;;;;;;;;;4905767;29;20524;-87
2024/02/28 08:36:21;;;;;;;54.17;26.77;;;;;;;;;;4909045;29;20474;-88
2024/02/28 08:39:23;;;;;;;50.40;25.40;;;;;;;;;;4904428;29;20470;-89
2024/02/28 08:42:18;;;;;;;54.23;26.00;;;;;;;;;;4910073;29;20466;-87
2024/02/28 08:45:09;;;;;;;53.07;26.57;;;;;;;;;;4910974;29;20450;-89
2024/02/28 08:47:52;;;;;;;47.70;24.23;;;;;;;;;;4920198;29;20501;-87
2024/02/28 08:50:46;;;;;;;48.83;25.00;;;;;;;;;;4902240;29;20526;-88
2024/02/28 08:53:33;;;;;;;51.60;24.03;;;;;;;;;;4950096;28;20492;-88
2024/02/28 08:59:33;;;;;;;45.40;23.70;;;;;;;;;;4969477;28;20444;-89
2024/02/28 09:02:31;;;;;;;;;;;;;;;;;;;;;
2024/02/28 09:04:58;;;;;;;45.67;25.20;;;;;;;;;;4997645;28;20520;-89
2024/02/28 09:07:51;;;;;;;56.20;25.73;;;;;;;;;;4968667;28;20441;-87
2024/02/28 09:13:57;;;;;;;46.10;23.30;;;;;;;;;;4971294;28;20477;-88
2024/02/28 09:17:04;;;;;;;49.33;25.13;;;;;;;;;;4951806;28;20463;-88
2024/02/28 09:20:18;;;;;;;;;;;;;;;;;;;;;
2024/02/28 09:23:14;;;;;;;47.40;25.63;;;;;;;;;;4987682;28;20482;-88
2024/02/28 09:25:47;;;;;;;50.90;25.13;;;;;;;;;;4978844;28;20528;-89
2024/02/28 09:28:57;;;;;;;50.97;24.47;;;;;;;;;;4969232;28;20451;-90
2024/02/28 09:32:02;;;;;;;45.30;23.07;;;;;;;;;;4971663;28;20480;-87
2024/02/28 09:35:20;;;;;;;54.27;25.60;;;;;;;;;;5041287;23;20500;-89
2024/02/28 09:38:06;;;;;;;43.90;22.03;;;;;;;;;;4945732;29;20484;-87
2024/02/28 09:40:56;;;;;;;44.10;21.30;;;;;;;;;;4941517;29;21705;-86
2024/02/28 09:50:19;;;;;;;47.90;22.70;;;;;;;;;;4900360;29;20460;-88
2024/02/28 10:02:18;;;;;;;51.43;24.07;;;;;;;;;;4960451;28;20481;-90
2024/02/28 10:08:54;;;;;;;45.27;22.53;;;;;;;;;;4868336;29;20468;-88
2024/02/28 10:11:40;;;;;;;39.00;22.20;;;;;;;;;;4918054;29;20498;-88
2024/02/28 10:15:26;;;;;;;56.07;25.07;;;;;;;;;;4920761;29;20450;-87
2024/02/28 10:18:13;;;;;;;42.63;23.57;;;;;;;;;;4931246;29;20462;-88
2024/02/28 10:20:57;;;;;;;49.03;22.40;;;;;;;;;;4928679;29;20458;-88
2024/02/28 10:24:11;;;;;;;;;;;;;;;;;;;;;
2024/02/28 10:27:09;;;;;;;44.33;21.20;;;;;;;;;;4932713;29;20541;-89
2024/02/28 10:33:16;;;;;;;40.93;23.23;;;;;;;;;;4936932;29;20517;-90
2024/02/28 10:39:55;;;;;;;44.97;24.10;;;;;;;;;;4917440;29;20532;-88
2024/02/28 10:42:30;;;;;;;39.27;22.10;;;;;;;;;;4909904;29;20542;-86
2024/02/28 10:45:07;;;;;;;42.63;23.47;;;;;;;;;;4909960;29;20485;-89
2024/02/28 10:47:51;;;;;;;46.70;24.37;;;;;;;;;;4911338;29;20466;-90
2024/02/28 10:50:48;;;;;;;42.67;22.10;;;;;;;;;;4908683;29;20651;-87
2024/02/28 10:53:33;;;;;;;37.50;19.17;;;;;;;;;;4910678;29;21015;-88
2024/02/28 10:56:23;;;;;;;40.43;21.37;;;;;;;;;;4912623;29;20894;-88
2024/02/28 10:59:20;;;;;;;43.03;23.17;;;;;;;;;;4914604;29;20461;-88
2024/02/28 11:01:57;;;;;;;41.83;20.30;;;;;;;;;;4915781;29;20469;-86
2024/02/28 11:04:48;;;;;;;;;;;;;;;;;;;;;
2024/02/28 11:07:54;;;;;;;41.50;22.20;;;;;;;;;;4944829;29;20470;-90
2024/02/28 11:10:33;;;;;;;42.53;23.03;;;;;;;;;;4928652;29;20455;-89
2024/02/28 11:13:28;;;;;;;40.60;23.63;;;;;;;;;;4926466;29;20501;-88
2024/02/28 11:16:36;;;;;;;37.37;21.47;;;;;;;;;;4923427;29;20509;-88
2024/02/28 11:20:11;;;;;;;42.80;23.53;;;;;;;;;;4909887;29;20594;-88
2024/02/28 11:23:12;;;;;;;40.00;23.13;;;;;;;;;;4929231;29;20465;-89
2024/02/28 11:26:13;;;;;;;31.97;19.03;;;;;;;;;;4902783;29;20450;-88
2024/02/28 11:29:28;;;;;;;42.90;22.93;;;;;;;;;;4902827;29;20454;-90
2024/02/28 11:32:10;;;;;;;44.80;22.43;;;;;;;;;;4913848;29;21192;-86
2024/02/28 11:34:51;;;;;;;38.83;20.73;;;;;;;;;;4914674;29;20488;-89
2024/02/28 11:37:26;;;;;;;39.60;22.17;;;;;;;;;;4914851;29;20462;-87
2024/02/28 11:40:25;;;;;;;39.67;22.57;;;;;;;;;;4915781;29;20458;-87
2024/02/28 11:43:07;;;;;;;38.07;21.23;;;;;;;;;;4914375;29;20564;-87
2024/02/28 11:49:51;;;;;;;38.73;21.67;;;;;;;;;;4930160;29;20527;-89
2024/02/28 11:53:08;;;;;;;;;;;;;;;;;;;;;
2024/02/28 11:56:09;;;;;;;34.47;20.70;;;;;;;;;;4857227;29;20429;-88
2024/02/28 12:02:38;;;;;;;;;;;;;;;;;;;;;
2024/02/28 12:05:23;;;;;;;34.33;18.70;;;;;;;;;;4755455;30;20462;-90
2024/02/28 12:08:13;;;;;;;33.97;19.53;;;;;;;;;;4743217;30;20475;-89
2024/02/28 12:11:39;;;;;;;34.33;19.30;;;;;;;;;;4735506;30;20451;-89
2024/02/28 12:25:06;;;;;;;;;;;;;;;;;;;;;
2024/02/28 12:28:02;;;;;;;32.73;19.33;;;;;;;;;;4656001;30;21038;-92
2024/02/28 12:34:54;;;;;;;33.00;19.13;;;;;;;;;;4631375;30;20511;-89
2024/02/28 12:44:20;;;;;;;27.60;16.97;;;;;;;;;;4747711;30;20468;-87
2024/02/28 12:47:09;;;;;;;34.83;18.23;;;;;;;;;;4780771;29;20507;-88
2024/02/28 12:49:55;;;;;;;33.47;18.63;;;;;;;;;;4863067;29;21062;-88
2024/02/28 12:52:42;;;;;;;29.90;18.60;;;;;;;;;;4851515;29;21059;-87
2024/02/28 12:55:46;;;;;;;;;;;;;;;;;;;;;
2024/02/28 12:58:39;;;;;;;29.60;17.10;;;;;;;;;;4931610;29;20468;-88
2024/02/28 13:01:51;;;;;;;28.50;16.93;;;;;;;;;;4931867;29;20981;-86
2024/02/28 13:04:55;;;;;;;;;;;;;;;;;;;;;
2024/02/28 13:07:43;;;;;;;31.37;16.00;;;;;;;;;;4933491;29;20830;-87
2024/02/28 13:10:45;;;;;;;30.63;17.93;;;;;;;;;;4874338;29;20479;-87
2024/02/28 13:20:41;;;;;;;29.63;17.67;;;;;;;;;;4930306;29;20464;-86
2024/02/28 13:23:38;;;;;;;27.47;16.20;;;;;;;;;;4920008;29;20591;-87
2024/02/28 13:26:43;;;;;;;25.03;15.23;;;;;;;;;;4914862;29;20515;-87
2024/02/28 13:38:09;;;;;;;25.87;16.50;;;;;;;;;;5378514;23;20491;-88
2024/02/28 13:41:13;;;;;;;26.70;14.87;;;;;;;;;;4965473;28;20468;-87
2024/02/28 13:44:09;;;;;;;25.20;15.30;;;;;;;;;;4973843;28;21255;-87
2024/02/28 14:14:12;;;;;;;23.07;13.73;;;;;;;;;;4934002;29;20524;-87
2024/02/28 14:17:09;;;;;;;21.00;12.93;;;;;;;;;;4935947;29;20429;-88
2024/02/28 14:19:49;;;;;;;25.60;14.60;;;;;;;;;;4916187;29;20483;-88
2024/02/28 14:23:14;;;;;;;19.60;11.97;;;;;;;;;;4911481;29;20451;-87
2024/02/28 14:25:56;;;;;;;21.03;12.37;;;;;;;;;;4906819;29;20469;-87
2024/02/28 14:28:49;;;;;;;24.00;12.60;;;;;;;;;;4863263;29;20825;-87
2024/02/28 14:31:36;;;;;;;21.27;11.47;;;;;;;;;;4864911;29;20480;-87
2024/02/28 14:34:28;;;;;;;22.93;12.60;;;;;;;;;;4863843;29;21076;-88
2024/02/28 14:37:35;;;;;;;21.77;12.50;;;;;;;;;;4827902;29;20481;-88
2024/02/28 14:40:27;;;;;;;17.37;11.67;;;;;;;;;;4862971;29;20473;-88
2024/02/28 14:43:52;;;;;;;21.27;12.33;;;;;;;;;;5042350;23;20511;-86
2024/02/28 14:46:52;;;;;;;20.63;12.03;;;;;;;;;;4944271;29;20449;-88
2024/02/28 14:49:42;;;;;;;21.73;13.40;;;;;;;;;;4936433;29;21363;-90
2024/02/28 14:52:35;;;;;;;20.80;12.03;;;;;;;;;;4931705;29;20481;-87
2024/02/28 14:57:54;;;;;;;20.03;11.33;;;;;;;;;;4951319;28;20492;-90
2024/02/28 15:01:00;;;;;;;20.80;13.10;;;;;;;;;;4942218;29;20477;-88
2024/02/28 15:07:05;;;;;;;17.87;10.40;;;;;;;;;;4946497;29;20538;-89
2024/02/28 15:09:55;;;;;;;21.90;13.50;;;;;;;;;;4910069;29;20427;-88
2024/02/28 15:12:46;;;;;;;21.83;13.50;;;;;;;;;;4942191;29;20444;-90
2024/02/28 15:15:42;;;;;;;;;;;;;;;;;;;;;
2024/02/28 15:18:35;;;;;;;19.37;12.10;;;;;;;;;;4938281;29;20462;-87
2024/02/28 15:21:11;;;;;;;19.53;12.70;;;;;;;;;;4922806;29;20454;-88
2024/02/28 15:24:07;;;;;;;16.00;10.40;;;;;;;;;;4913980;29;20469;-88
2024/02/28 15:26:44;;;;;;;19.10;10.57;;;;;;;;;;4923846;29;20461;-90
2024/02/28 15:29:29;;;;;;;19.50;11.83;;;;;;;;;;4946824;29;20458;-89
2024/02/28 15:32:28;;;;;;;;;;;;;;;;;;;;;
2024/02/28 15:35:58;;;;;;;;;;;;;;;;;;;;;
2024/02/28 15:38:53;;;;;;;20.43;11.63;;;;;;;;;;4945010;29;20497;-88
2024/02/28 15:41:51;;;;;;;17.93;11.33;;;;;;;;;;4933594;29;20442;-89
2024/02/28 16:00:32;;;;;;;16.80;10.50;;;;;;;;;;4987073;28;20419;-89
2024/02/28 16:11:07;;;;;;;20.63;12.03;;;;;;;;;;4848335;29;20430;-88
2024/02/28 22:11:33;;;;;;;13.80;9.13;;;;;;;;;;4927344;29;20475;-90
2024/02/28 22:14:44;;;;;;;14.50;8.97;;;;;;;;;;4882460;29;20483;-90
2024/02/28 22:21:12;;;;;;;17.10;9.87;;;;;;;;;;4880497;29;20437;-88
2024/02/28 22:31:09;;;;;;;;;;;;;;;;;;;;;
2024/02/28 22:37:34;;;;;;;14.80;8.83;;;;;;;;;;4873080;29;20425;-88
2024/02/28 22:40:34;;;;;;;14.70;10.30;;;;;;;;;;4880314;29;20460;-89
2024/02/28 22:47:34;;;;;;;13.23;7.73;;;;;;;;;;4915560;29;20524;-87
2024/02/28 22:50:42;;;;;;;20.47;8.47;;;;;;;;;;4903114;29;20939;-87
2024/02/28 22:57:09;;;;;;;14.43;8.50;;;;;;;;;;4977162;28;20439;-89
2024/02/28 23:00:29;;;;;;;14.10;9.20;;;;;;;;;;4973864;28;20478;-85
2024/02/28 23:03:24;;;;;;;12.87;8.10;;;;;;;;;;4952479;28;20487;-88
2024/02/28 23:07:07;;;;;;;13.40;8.30;;;;;;;;;;4967915;28;20456;-88
2024/02/28 23:09:32;;;;;;;15.63;9.53;;;;;;;;;;4971437;28;20451;-92
2024/02/28 23:15:58;;;;;;;9.90;7.10;;;;;;;;;;4988806;28;20439;-88
2024/02/28 23:18:51;;;;;;;11.73;7.30;;;;;;;;;;4991275;28;20435;-88
2024/02/28 23:22:09;;;;;;;;;;;;;;;;;;;;;
2024/02/28 23:25:01;;;;;;;14.07;7.97;;;;;;;;;;4976970;28;21022;-88
2024/02/28 23:28:15;;;;;;;13.23;8.83;;;;;;;;;;4978476;28;20456;-88
2024/02/28 23:31:41;;;;;;;;;;;;;;;;;;;;;
2024/02/28 23:34:42;;;;;;;;;;;;;;;;;;;;;
2024/02/28 23:37:32;;;;;;;10.60;7.80;;;;;;;;;;4857300;29;20458;-89
2024/02/28 23:40:40;;;;;;;12.13;7.57;;;;;;;;;;4935291;28;20452;-91
2024/02/28 23:43:40;;;;;;;11.67;7.70;;;;;;;;;;4931887;29;20454;-88
2024/02/28 23:47:05;;;;;;;10.40;7.43;;;;;;;;;;4923309;29;20533;-88
2024/02/28 23:53:14;;;;;;;11.63;7.30;;;;;;;;;;4940262;28;20452;-90
2024/02/28 23:59:40;;;;;;;;;;;;;;;;;;;;;
